sensor_id;sensor_type;location;lat;lon;timestamp;pressure;altitude;pressure_sealevel;temperature;humidity
62995;BME280;49086;52.300;4.850;2022-07-10T00:00:13;53286.59;;;-146.41;62.87
62995;BME280;49086;52.300;4.850;2022-07-10T00:02:43;53334.41;;;-146.41;63.25
62995;BME280;49086;52.300;4.850;2022-07-10T00:05:16;53326.44;;;-146.41;63.97
62995;BME280;49086;52.300;4.850;2022-07-10T00:07:42;53336.41;;;-146.41;63.95
62995;BME280;49086;52.300;4.850;2022-07-10T00:10:08;53334.41;;;-146.41;64.10
62995;BME280;49086;52.300;4.850;2022-07-10T00:12:34;53310.50;;;-146.41;64.52
62995;BME280;49086;52.300;4.850;2022-07-10T00:15:05;53330.44;;;-146.41;64.34
62995;BME280;49086;52.300;4.850;2022-07-10T00:17:48;53348.38;;;-146.41;64.49
62995;BME280;49086;52.300;4.850;2022-07-10T00:20:16;53342.41;;;-146.41;64.50
62995;BME280;49086;52.300;4.850;2022-07-10T00:22:42;53340.41;;;-146.41;64.91
62995;BME280;49086;52.300;4.850;2022-07-10T00:25:12;53348.38;;;-146.41;64.40
62995;BME280;49086;52.300;4.850;2022-07-10T00:27:41;53318.47;;;-146.41;64.67
62995;BME280;49086;52.300;4.850;2022-07-10T00:30:08;53314.50;;;-146.41;64.28
62995;BME280;49086;52.300;4.850;2022-07-10T00:32:42;53344.38;;;-146.41;64.04
62995;BME280;49086;52.300;4.850;2022-07-10T00:35:12;53316.47;;;-146.41;63.72
62995;BME280;49086;52.300;4.850;2022-07-10T00:37:39;53318.47;;;-146.41;63.60
62995;BME280;49086;52.300;4.850;2022-07-10T00:40:06;53340.41;;;-146.41;64.02
62995;BME280;49086;52.300;4.850;2022-07-10T00:42:33;53338.41;;;-146.41;64.12
62995;BME280;49086;52.300;4.850;2022-07-10T00:45:03;53354.34;;;-146.41;64.13
62995;BME280;49086;52.300;4.850;2022-07-10T00:47:30;53354.34;;;-146.41;64.14
62995;BME280;49086;52.300;4.850;2022-07-10T00:50:01;53330.44;;;-146.41;64.14
62995;BME280;49086;52.300;4.850;2022-07-10T00:52:28;53384.25;;;-146.41;64.58
62995;BME280;49086;52.300;4.850;2022-07-10T00:54:56;53346.38;;;-146.41;64.71
62995;BME280;49086;52.300;4.850;2022-07-10T00:57:30;53356.34;;;-146.41;64.73
62995;BME280;49086;52.300;4.850;2022-07-10T00:59:57;53352.38;;;-146.41;65.00
62995;BME280;49086;52.300;4.850;2022-07-10T01:02:27;53336.41;;;-146.41;65.32
62995;BME280;49086;52.300;4.850;2022-07-10T01:04:54;53332.44;;;-146.41;66.06
62995;BME280;49086;52.300;4.850;2022-07-10T01:07:22;53388.25;;;-146.41;66.84
62995;BME280;49086;52.300;4.850;2022-07-10T01:09:50;53358.34;;;-146.41;67.29
62995;BME280;49086;52.300;4.850;2022-07-10T01:12:15;53346.38;;;-146.41;67.25
62995;BME280;49086;52.300;4.850;2022-07-10T01:14:46;53370.31;;;-146.41;67.66
62995;BME280;49086;52.300;4.850;2022-07-10T01:17:12;53334.41;;;-146.41;67.74
62995;BME280;49086;52.300;4.850;2022-07-10T01:19:39;53342.41;;;-146.41;67.44
62995;BME280;49086;52.300;4.850;2022-07-10T01:22:05;53376.28;;;-146.41;68.00
62995;BME280;49086;52.300;4.850;2022-07-10T01:24:32;53354.34;;;-146.41;67.94
62995;BME280;49086;52.300;4.850;2022-07-10T01:27:00;53324.47;;;-146.41;68.29
62995;BME280;49086;52.300;4.850;2022-07-10T01:29:29;53360.34;;;-146.41;68.21
62995;BME280;49086;52.300;4.850;2022-07-10T01:31:57;53338.41;;;-146.41;68.24
62995;BME280;49086;52.300;4.850;2022-07-10T01:34:43;53342.41;;;-146.41;68.28
62995;BME280;49086;52.300;4.850;2022-07-10T01:37:08;53386.25;;;-146.41;67.89
62995;BME280;49086;52.300;4.850;2022-07-10T01:39:35;53358.34;;;-146.41;68.83
62995;BME280;49086;52.300;4.850;2022-07-10T01:42:04;53334.41;;;-146.41;69.28
62995;BME280;49086;52.300;4.850;2022-07-10T01:44:51;53338.41;;;-146.41;69.53
62995;BME280;49086;52.300;4.850;2022-07-10T01:47:23;53342.41;;;-146.41;69.69
62995;BME280;49086;52.300;4.850;2022-07-10T01:50:00;53364.31;;;-146.41;69.55
62995;BME280;49086;52.300;4.850;2022-07-10T01:52:27;53360.34;;;-146.41;69.58
62995;BME280;49086;52.300;4.850;2022-07-10T01:54:58;53364.31;;;-146.41;69.99
62995;BME280;49086;52.300;4.850;2022-07-10T01:57:24;53354.34;;;-146.41;69.64
62995;BME280;49086;52.300;4.850;2022-07-10T01:59:52;53368.31;;;-146.41;70.08
62995;BME280;49086;52.300;4.850;2022-07-10T02:02:19;53376.28;;;-146.41;69.92
62995;BME280;49086;52.300;4.850;2022-07-10T02:04:52;53338.41;;;-146.41;69.87
62995;BME280;49086;52.300;4.850;2022-07-10T02:07:20;53368.31;;;-146.41;69.81
62995;BME280;49086;52.300;4.850;2022-07-10T02:09:50;53342.41;;;-146.41;69.74
62995;BME280;49086;52.300;4.850;2022-07-10T02:12:19;53348.38;;;-146.41;70.14
62995;BME280;49086;52.300;4.850;2022-07-10T02:15:10;53346.38;;;-146.41;69.97
62995;BME280;49086;52.300;4.850;2022-07-10T02:17:39;53390.22;;;-146.41;70.06
62995;BME280;49086;52.300;4.850;2022-07-10T02:20:06;53332.44;;;-146.41;69.82
62995;BME280;49086;52.300;4.850;2022-07-10T02:22:33;53378.28;;;-146.41;69.55
62995;BME280;49086;52.300;4.850;2022-07-10T02:25:00;53382.25;;;-146.41;69.60
62995;BME280;49086;52.300;4.850;2022-07-10T02:27:25;53350.38;;;-146.41;69.52
62995;BME280;49086;52.300;4.850;2022-07-10T02:29:51;53350.38;;;-146.41;69.95
62995;BME280;49086;52.300;4.850;2022-07-10T02:32:27;53360.34;;;-146.41;69.79
62995;BME280;49086;52.300;4.850;2022-07-10T02:34:53;53366.31;;;-146.41;70.14
62995;BME280;49086;52.300;4.850;2022-07-10T02:37:19;53390.22;;;-146.41;70.23
62995;BME280;49086;52.300;4.850;2022-07-10T02:39:48;53358.34;;;-146.41;69.84
62995;BME280;49086;52.300;4.850;2022-07-10T02:42:21;53350.38;;;-146.41;69.02
62995;BME280;49086;52.300;4.850;2022-07-10T02:44:48;53332.44;;;-146.41;69.49
62995;BME280;49086;52.300;4.850;2022-07-10T02:47:20;53322.47;;;-146.41;69.52
62995;BME280;49086;52.300;4.850;2022-07-10T02:49:46;53340.41;;;-146.41;69.57
62995;BME280;49086;52.300;4.850;2022-07-10T02:52:13;53382.25;;;-146.41;69.34
62995;BME280;49086;52.300;4.850;2022-07-10T02:54:38;53342.41;;;-146.41;69.32
62995;BME280;49086;52.300;4.850;2022-07-10T02:57:05;53338.41;;;-146.41;69.52
62995;BME280;49086;52.300;4.850;2022-07-10T02:59:33;53360.34;;;-146.41;69.20
62995;BME280;49086;52.300;4.850;2022-07-10T03:01:59;53342.41;;;-146.41;69.17
62995;BME280;49086;52.300;4.850;2022-07-10T03:04:27;53346.38;;;-146.41;69.65
62995;BME280;49086;52.300;4.850;2022-07-10T03:06:53;53310.50;;;-146.41;69.49
62995;BME280;49086;52.300;4.850;2022-07-10T03:09:19;53334.41;;;-146.41;69.47
62995;BME280;49086;52.300;4.850;2022-07-10T03:11:51;53354.34;;;-146.41;69.13
62995;BME280;49086;52.300;4.850;2022-07-10T03:14:27;53344.38;;;-146.41;68.99
62995;BME280;49086;52.300;4.850;2022-07-10T03:16:52;53338.41;;;-146.41;68.74
62995;BME280;49086;52.300;4.850;2022-07-10T03:19:23;53370.31;;;-146.41;68.72
62995;BME280;49086;52.300;4.850;2022-07-10T03:21:50;53342.41;;;-146.41;69.12
62995;BME280;49086;52.300;4.850;2022-07-10T03:24:16;53366.31;;;-146.41;68.78
62995;BME280;49086;52.300;4.850;2022-07-10T03:26:43;53364.31;;;-146.41;68.97
62995;BME280;49086;52.300;4.850;2022-07-10T03:29:09;53356.34;;;-146.41;69.16
62995;BME280;49086;52.300;4.850;2022-07-10T03:31:37;53372.28;;;-146.41;68.86
62995;BME280;49086;52.300;4.850;2022-07-10T03:34:15;53334.41;;;-146.41;69.11
62995;BME280;49086;52.300;4.850;2022-07-10T03:36:52;53358.34;;;-146.41;68.93
62995;BME280;49086;52.300;4.850;2022-07-10T03:39:24;53394.22;;;-146.41;68.92
62995;BME280;49086;52.300;4.850;2022-07-10T03:42:04;53350.38;;;-146.41;68.91
62995;BME280;49086;52.300;4.850;2022-07-10T03:44:33;53382.25;;;-146.41;69.13
62995;BME280;49086;52.300;4.850;2022-07-10T03:47:04;53352.38;;;-146.41;69.21
62995;BME280;49086;52.300;4.850;2022-07-10T03:49:35;53366.31;;;-146.41;69.40
62995;BME280;49086;52.300;4.850;2022-07-10T03:52:04;53366.31;;;-146.41;69.51
62995;BME280;49086;52.300;4.850;2022-07-10T03:54:32;53356.34;;;-146.41;69.49
62995;BME280;49086;52.300;4.850;2022-07-10T03:56:59;53350.38;;;-146.41;69.02
62995;BME280;49086;52.300;4.850;2022-07-10T04:00:05;53338.41;;;-146.41;69.24
62995;BME280;49086;52.300;4.850;2022-07-10T04:02:34;53338.41;;;-146.41;69.40
62995;BME280;49086;52.300;4.850;2022-07-10T04:05:07;53344.38;;;-146.41;69.05
62995;BME280;49086;52.300;4.850;2022-07-10T04:07:34;53364.31;;;-146.41;69.29
62995;BME280;49086;52.300;4.850;2022-07-10T04:10:05;53346.38;;;-146.41;68.99
62995;BME280;49086;52.300;4.850;2022-07-10T04:12:34;53354.34;;;-146.41;69.46
62995;BME280;49086;52.300;4.850;2022-07-10T04:15:02;53358.34;;;-146.41;69.32
62995;BME280;49086;52.300;4.850;2022-07-10T04:17:33;53338.41;;;-146.41;68.93
62995;BME280;49086;52.300;4.850;2022-07-10T04:20:00;53330.44;;;-146.41;68.82
62995;BME280;49086;52.300;4.850;2022-07-10T04:22:31;53368.31;;;-146.41;69.03
62995;BME280;49086;52.300;4.850;2022-07-10T04:24:56;53312.50;;;-146.41;69.22
62995;BME280;49086;52.300;4.850;2022-07-10T04:27:28;53342.41;;;-146.41;68.93
62995;BME280;49086;52.300;4.850;2022-07-10T04:30:14;53344.38;;;-146.41;68.73
62995;BME280;49086;52.300;4.850;2022-07-10T04:32:42;53366.31;;;-146.41;69.25
62995;BME280;49086;52.300;4.850;2022-07-10T04:35:11;53322.47;;;-146.41;69.10
62995;BME280;49086;52.300;4.850;2022-07-10T04:37:38;53354.34;;;-146.41;69.54
62995;BME280;49086;52.300;4.850;2022-07-10T04:40:16;53372.28;;;-146.41;69.78
62995;BME280;49086;52.300;4.850;2022-07-10T04:42:41;53352.38;;;-146.41;69.72
62995;BME280;49086;52.300;4.850;2022-07-10T04:45:07;53322.47;;;-146.41;69.83
62995;BME280;49086;52.300;4.850;2022-07-10T04:47:36;53350.38;;;-146.41;69.87
62995;BME280;49086;52.300;4.850;2022-07-10T04:50:04;53338.41;;;-146.41;69.85
62995;BME280;49086;52.300;4.850;2022-07-10T04:52:31;53348.38;;;-146.41;70.27
62995;BME280;49086;52.300;4.850;2022-07-10T04:54:57;53360.34;;;-146.41;70.27
62995;BME280;49086;52.300;4.850;2022-07-10T04:57:25;53358.34;;;-146.41;70.39
62995;BME280;49086;52.300;4.850;2022-07-10T04:59:55;53360.34;;;-146.41;70.61
62995;BME280;49086;52.300;4.850;2022-07-10T05:02:22;53330.44;;;-146.41;70.37
62995;BME280;49086;52.300;4.850;2022-07-10T05:04:49;53318.47;;;-146.41;70.64
62995;BME280;49086;52.300;4.850;2022-07-10T05:07:19;53320.47;;;-146.41;70.75
62995;BME280;49086;52.300;4.850;2022-07-10T05:09:47;53338.41;;;-146.41;70.88
62995;BME280;49086;52.300;4.850;2022-07-10T05:12:16;53338.41;;;-146.41;71.14
62995;BME280;49086;52.300;4.850;2022-07-10T05:14:42;53358.34;;;-146.41;71.05
62995;BME280;49086;52.300;4.850;2022-07-10T05:17:39;53356.34;;;-146.41;70.86
62995;BME280;49086;52.300;4.850;2022-07-10T05:20:09;53308.50;;;-146.41;70.85
62995;BME280;49086;52.300;4.850;2022-07-10T05:22:43;53322.47;;;-146.41;70.83
62995;BME280;49086;52.300;4.850;2022-07-10T05:25:37;53314.50;;;-146.41;70.72
62995;BME280;49086;52.300;4.850;2022-07-10T05:28:11;53338.41;;;-146.41;70.61
62995;BME280;49086;52.300;4.850;2022-07-10T05:30:39;53352.38;;;-146.41;70.66
62995;BME280;49086;52.300;4.850;2022-07-10T05:33:18;53330.44;;;-146.41;70.58
62995;BME280;49086;52.300;4.850;2022-07-10T05:35:48;53352.38;;;-146.41;69.84
62995;BME280;49086;52.300;4.850;2022-07-10T05:38:33;53320.47;;;-146.41;69.63
62995;BME280;49086;52.300;4.850;2022-07-10T05:40:59;53338.41;;;-146.41;70.07
62995;BME280;49086;52.300;4.850;2022-07-10T05:43:24;53294.56;;;-146.41;69.96
62995;BME280;49086;52.300;4.850;2022-07-10T05:45:54;53310.50;;;-146.41;70.38
62995;BME280;49086;52.300;4.850;2022-07-10T05:48:19;53300.53;;;-146.41;69.65
62995;BME280;49086;52.300;4.850;2022-07-10T05:50:46;53344.38;;;-146.41;69.73
62995;BME280;49086;52.300;4.850;2022-07-10T05:53:11;53350.38;;;-146.41;69.88
62995;BME280;49086;52.300;4.850;2022-07-10T05:55:45;53296.56;;;-146.41;69.51
62995;BME280;49086;52.300;4.850;2022-07-10T05:58:13;53310.50;;;-146.41;69.10
62995;BME280;49086;52.300;4.850;2022-07-10T06:00:42;53304.53;;;-146.41;68.54
62995;BME280;49086;52.300;4.850;2022-07-10T06:03:09;53322.47;;;-146.41;69.24
62995;BME280;49086;52.300;4.850;2022-07-10T06:05:36;53290.56;;;-146.41;69.11
62995;BME280;49086;52.300;4.850;2022-07-10T06:08:05;53288.56;;;-146.41;68.68
62995;BME280;49086;52.300;4.850;2022-07-10T06:10:34;53318.47;;;-146.41;69.02
62995;BME280;49086;52.300;4.850;2022-07-10T06:13:02;53304.53;;;-146.41;68.69
62995;BME280;49086;52.300;4.850;2022-07-10T06:15:29;53310.50;;;-146.41;68.42
62995;BME280;49086;52.300;4.850;2022-07-10T06:17:58;53316.47;;;-146.41;69.16
62995;BME280;49086;52.300;4.850;2022-07-10T06:20:45;53346.38;;;-146.41;69.20
62995;BME280;49086;52.300;4.850;2022-07-10T06:23:18;53306.50;;;-146.41;69.57
62995;BME280;49086;52.300;4.850;2022-07-10T06:25:44;53284.59;;;-146.41;69.13
62995;BME280;49086;52.300;4.850;2022-07-10T06:28:17;53320.47;;;-146.41;68.91
62995;BME280;49086;52.300;4.850;2022-07-10T06:30:48;53336.41;;;-146.41;68.99
62995;BME280;49086;52.300;4.850;2022-07-10T06:33:16;53322.47;;;-146.41;68.70
62995;BME280;49086;52.300;4.850;2022-07-10T06:35:42;53292.56;;;-146.41;69.00
62995;BME280;49086;52.300;4.850;2022-07-10T06:38:08;53294.56;;;-146.41;69.16
62995;BME280;49086;52.300;4.850;2022-07-10T06:40:36;53314.50;;;-146.41;69.46
62995;BME280;49086;52.300;4.850;2022-07-10T06:43:04;53318.47;;;-146.41;69.36
62995;BME280;49086;52.300;4.850;2022-07-10T06:45:39;53308.50;;;-146.41;69.04
62995;BME280;49086;52.300;4.850;2022-07-10T06:48:05;53330.44;;;-146.41;68.65
62995;BME280;49086;52.300;4.850;2022-07-10T06:50:34;53276.63;;;-146.41;68.81
62995;BME280;49086;52.300;4.850;2022-07-10T06:53:03;53270.63;;;-146.41;68.70
62995;BME280;49086;52.300;4.850;2022-07-10T06:55:29;53304.53;;;-146.41;68.57
62995;BME280;49086;52.300;4.850;2022-07-10T06:57:56;53298.53;;;-146.41;68.69
62995;BME280;49086;52.300;4.850;2022-07-10T07:00:22;53304.53;;;-146.41;68.37
62995;BME280;49086;52.300;4.850;2022-07-10T07:03:02;53298.53;;;-146.41;67.47
62995;BME280;49086;52.300;4.850;2022-07-10T07:05:29;53352.38;;;-146.41;67.25
62995;BME280;49086;52.300;4.850;2022-07-10T07:07:59;53292.56;;;-146.41;67.60
62995;BME280;49086;52.300;4.850;2022-07-10T07:10:27;53330.44;;;-146.41;67.66
62995;BME280;49086;52.300;4.850;2022-07-10T07:12:54;53302.53;;;-146.41;67.92
62995;BME280;49086;52.300;4.850;2022-07-10T07:15:23;53302.53;;;-146.41;67.53
62995;BME280;49086;52.300;4.850;2022-07-10T07:17:50;53280.59;;;-146.41;67.39
62995;BME280;49086;52.300;4.850;2022-07-10T07:20:28;53294.56;;;-146.41;66.83
62995;BME280;49086;52.300;4.850;2022-07-10T07:23:13;53308.50;;;-146.41;66.34
62995;BME280;49086;52.300;4.850;2022-07-10T07:25:43;53296.56;;;-146.41;66.65
62995;BME280;49086;52.300;4.850;2022-07-10T07:28:20;53308.50;;;-146.41;66.78
62995;BME280;49086;52.300;4.850;2022-07-10T07:30:48;53300.53;;;-146.41;66.57
62995;BME280;49086;52.300;4.850;2022-07-10T07:33:18;53280.59;;;-146.41;67.08
62995;BME280;49086;52.300;4.850;2022-07-10T07:35:44;53282.59;;;-146.41;65.96
62995;BME280;49086;52.300;4.850;2022-07-10T07:38:11;53298.53;;;-146.41;66.50
62995;BME280;49086;52.300;4.850;2022-07-10T07:40:59;53322.47;;;-146.41;65.94
62995;BME280;49086;52.300;4.850;2022-07-10T07:43:26;53254.69;;;-146.41;66.06
62995;BME280;49086;52.300;4.850;2022-07-10T07:45:56;53270.63;;;-146.41;65.60
62995;BME280;49086;52.300;4.850;2022-07-10T07:48:28;53270.63;;;-146.41;65.87
62995;BME280;49086;52.300;4.850;2022-07-10T07:51:04;53312.50;;;-146.41;66.14
62995;BME280;49086;52.300;4.850;2022-07-10T07:54:02;53290.56;;;-146.41;65.47
62995;BME280;49086;52.300;4.850;2022-07-10T07:56:30;53254.69;;;-146.41;65.23
62995;BME280;49086;52.300;4.850;2022-07-10T07:58:57;53270.63;;;-146.41;65.03
62995;BME280;49086;52.300;4.850;2022-07-10T08:01:35;53276.63;;;-146.41;64.97
62995;BME280;49086;52.300;4.850;2022-07-10T08:04:05;53262.66;;;-146.41;63.60
62995;BME280;49086;52.300;4.850;2022-07-10T08:06:46;53268.63;;;-146.41;63.78
62995;BME280;49086;52.300;4.850;2022-07-10T08:09:13;53258.69;;;-146.41;63.35
62995;BME280;49086;52.300;4.850;2022-07-10T08:11:44;53276.63;;;-146.41;62.14
62995;BME280;49086;52.300;4.850;2022-07-10T08:14:12;53256.69;;;-146.41;62.15
62995;BME280;49086;52.300;4.850;2022-07-10T08:16:39;53244.72;;;-146.41;62.56
62995;BME280;49086;52.300;4.850;2022-07-10T08:19:08;53262.66;;;-146.41;62.76
62995;BME280;49086;52.300;4.850;2022-07-10T08:21:33;53270.63;;;-146.41;62.00
62995;BME280;49086;52.300;4.850;2022-07-10T08:23:59;53278.59;;;-146.41;62.33
62995;BME280;49086;52.300;4.850;2022-07-10T08:26:48;53272.63;;;-146.41;61.33
62995;BME280;49086;52.300;4.850;2022-07-10T08:29:21;53238.75;;;-146.41;61.79
62995;BME280;49086;52.300;4.850;2022-07-10T08:31:50;53242.72;;;-146.41;62.38
62995;BME280;49086;52.300;4.850;2022-07-10T08:34:17;53238.75;;;-146.41;63.32
62995;BME280;49086;52.300;4.850;2022-07-10T08:36:44;53234.75;;;-146.41;63.51
62995;BME280;49086;52.300;4.850;2022-07-10T08:39:10;53212.84;;;-146.41;63.12
62995;BME280;49086;52.300;4.850;2022-07-10T08:41:39;53218.81;;;-146.41;62.27
62995;BME280;49086;52.300;4.850;2022-07-10T08:44:06;53266.66;;;-146.41;62.52
62995;BME280;49086;52.300;4.850;2022-07-10T08:46:32;53232.75;;;-146.41;62.35
62995;BME280;49086;52.300;4.850;2022-07-10T08:49:05;53224.78;;;-146.41;61.64
62995;BME280;49086;52.300;4.850;2022-07-10T08:52:00;53234.75;;;-146.41;60.95
62995;BME280;49086;52.300;4.850;2022-07-10T08:54:30;53268.63;;;-146.41;60.53
62995;BME280;49086;52.300;4.850;2022-07-10T08:57:02;53212.84;;;-146.41;60.96
62995;BME280;49086;52.300;4.850;2022-07-10T08:59:51;53216.81;;;-146.41;61.37
62995;BME280;49086;52.300;4.850;2022-07-10T09:02:19;53218.81;;;-146.41;61.41
62995;BME280;49086;52.300;4.850;2022-07-10T09:04:53;53228.78;;;-146.41;59.82
62995;BME280;49086;52.300;4.850;2022-07-10T09:07:19;53236.75;;;-146.41;60.00
62995;BME280;49086;52.300;4.850;2022-07-10T09:09:51;53232.75;;;-146.41;60.14
62995;BME280;49086;52.300;4.850;2022-07-10T09:12:22;53222.78;;;-146.41;60.37
62995;BME280;49086;52.300;4.850;2022-07-10T09:14:51;53198.88;;;-146.41;59.80
62995;BME280;49086;52.300;4.850;2022-07-10T09:17:18;53236.75;;;-146.41;59.72
62995;BME280;49086;52.300;4.850;2022-07-10T09:19:45;53196.88;;;-146.41;59.59
62995;BME280;49086;52.300;4.850;2022-07-10T09:22:19;53192.91;;;-146.41;58.66
62995;BME280;49086;52.300;4.850;2022-07-10T09:24:49;53184.94;;;-146.41;58.67
62995;BME280;49086;52.300;4.850;2022-07-10T09:27:25;53182.94;;;-146.41;57.63
62995;BME280;49086;52.300;4.850;2022-07-10T09:29:52;53188.91;;;-146.41;57.19
62995;BME280;49086;52.300;4.850;2022-07-10T09:32:23;53224.78;;;-146.41;56.69
62995;BME280;49086;52.300;4.850;2022-07-10T09:34:56;53222.78;;;-146.41;56.05
62995;BME280;49086;52.300;4.850;2022-07-10T09:37:54;53220.81;;;-146.41;56.80
62995;BME280;49086;52.300;4.850;2022-07-10T09:40:28;53214.81;;;-146.41;56.21
62995;BME280;49086;52.300;4.850;2022-07-10T09:43:01;53188.91;;;-146.41;55.36
62995;BME280;49086;52.300;4.850;2022-07-10T09:45:26;53220.81;;;-146.41;54.89
62995;BME280;49086;52.300;4.850;2022-07-10T09:48:00;53208.84;;;-146.41;54.82
62995;BME280;49086;52.300;4.850;2022-07-10T09:50:36;53208.84;;;-146.41;55.17
62995;BME280;49086;52.300;4.850;2022-07-10T09:53:06;53200.88;;;-146.41;54.47
62995;BME280;49086;52.300;4.850;2022-07-10T09:56:00;53200.88;;;-146.41;53.26
62995;BME280;49086;52.300;4.850;2022-07-10T09:58:30;53194.88;;;-146.41;53.52
62995;BME280;49086;52.300;4.850;2022-07-10T10:00:57;53184.94;;;-146.41;52.20
62995;BME280;49086;52.300;4.850;2022-07-10T10:03:24;53121.13;;;-146.41;51.61
62995;BME280;49086;52.300;4.850;2022-07-10T10:05:58;53153.03;;;-146.41;51.79
62995;BME280;49086;52.300;4.850;2022-07-10T10:11:43;53170.97;;;-146.41;52.78
62995;BME280;49086;52.300;4.850;2022-07-10T10:14:09;53135.09;;;-146.41;51.36
62995;BME280;49086;52.300;4.850;2022-07-10T10:16:37;53176.94;;;-146.41;52.52
62995;BME280;49086;52.300;4.850;2022-07-10T10:19:04;53188.91;;;-146.41;51.64
62995;BME280;49086;52.300;4.850;2022-07-10T10:21:53;53178.94;;;-146.41;51.94
62995;BME280;49086;52.300;4.850;2022-07-10T10:24:20;53151.03;;;-146.41;53.11
62995;BME280;49086;52.300;4.850;2022-07-10T10:27:04;53182.94;;;-146.41;52.69
62995;BME280;49086;52.300;4.850;2022-07-10T10:29:32;53159.00;;;-146.41;51.97
62995;BME280;49086;52.300;4.850;2022-07-10T10:32:00;53180.94;;;-146.41;49.61
62995;BME280;49086;52.300;4.850;2022-07-10T10:34:42;53165.00;;;-146.41;50.10
62995;BME280;49086;52.300;4.850;2022-07-10T10:37:33;53159.00;;;-146.41;48.15
62995;BME280;49086;52.300;4.850;2022-07-10T10:40:03;53127.13;;;-146.41;47.49
62995;BME280;49086;52.300;4.850;2022-07-10T10:42:43;53105.19;;;-146.41;46.90
62995;BME280;49086;52.300;4.850;2022-07-10T10:45:37;53163.00;;;-146.41;47.45
62995;BME280;49086;52.300;4.850;2022-07-10T10:48:10;53133.09;;;-146.41;46.57
62995;BME280;49086;52.300;4.850;2022-07-10T10:50:50;53161.00;;;-146.41;46.67
62995;BME280;49086;52.300;4.850;2022-07-10T10:53:41;53139.09;;;-146.41;47.57
62995;BME280;49086;52.300;4.850;2022-07-10T10:56:27;53182.94;;;-146.41;47.78
62995;BME280;49086;52.300;4.850;2022-07-10T10:58:56;53117.16;;;-146.41;46.69
62995;BME280;49086;52.300;4.850;2022-07-10T11:01:29;53137.09;;;-146.41;47.14
62995;BME280;49086;52.300;4.850;2022-07-10T11:07:04;53139.09;;;-146.41;47.42
62995;BME280;49086;52.300;4.850;2022-07-10T11:09:36;53119.16;;;-146.41;48.26
62995;BME280;49086;52.300;4.850;2022-07-10T11:12:09;53105.19;;;-146.41;45.69
62995;BME280;49086;52.300;4.850;2022-07-10T11:14:51;53115.16;;;-146.41;45.26
62995;BME280;49086;52.300;4.850;2022-07-10T11:17:44;53141.06;;;-146.41;45.99
62995;BME280;49086;52.300;4.850;2022-07-10T11:20:57;53119.16;;;-146.41;45.93
62995;BME280;49086;52.300;4.850;2022-07-10T11:30:02;53123.13;;;-146.41;45.33
62995;BME280;49086;52.300;4.850;2022-07-10T11:32:28;53091.25;;;-146.41;43.55
62995;BME280;49086;52.300;4.850;2022-07-10T11:34:57;53131.09;;;-146.41;46.17
62995;BME280;49086;52.300;4.850;2022-07-10T11:37:24;53135.09;;;-146.41;45.19
62995;BME280;49086;52.300;4.850;2022-07-10T11:40:17;53083.28;;;-146.41;45.11
62995;BME280;49086;52.300;4.850;2022-07-10T11:42:56;53089.25;;;-146.41;43.97
62995;BME280;49086;52.300;4.850;2022-07-10T11:45:29;53055.38;;;-146.41;44.89
62995;BME280;49086;52.300;4.850;2022-07-10T11:48:19;53079.28;;;-146.41;44.14
62995;BME280;49086;52.300;4.850;2022-07-10T11:50:45;53091.25;;;-146.41;44.72
62995;BME280;49086;52.300;4.850;2022-07-10T11:53:11;53035.44;;;-146.41;44.50
62995;BME280;49086;52.300;4.850;2022-07-10T11:55:37;53023.47;;;-146.41;44.99
62995;BME280;49086;52.300;4.850;2022-07-10T11:58:19;53055.38;;;-146.41;43.96
62995;BME280;49086;52.300;4.850;2022-07-10T12:01:02;53111.19;;;-146.41;46.35
62995;BME280;49086;52.300;4.850;2022-07-10T12:03:31;53107.19;;;-146.41;45.34
62995;BME280;49086;52.300;4.850;2022-07-10T12:06:09;53103.19;;;-146.41;45.83
62995;BME280;49086;52.300;4.850;2022-07-10T12:09:03;53125.13;;;-146.41;46.30
62995;BME280;49086;52.300;4.850;2022-07-10T12:12:07;53107.19;;;-146.41;46.10
62995;BME280;49086;52.300;4.850;2022-07-10T12:14:40;53101.22;;;-146.41;47.64
62995;BME280;49086;52.300;4.850;2022-07-10T12:17:57;53079.28;;;-146.41;47.30
62995;BME280;49086;52.300;4.850;2022-07-10T12:20:33;53163.00;;;-146.41;47.89
62995;BME280;49086;52.300;4.850;2022-07-10T12:23:01;53123.13;;;-146.41;48.28
62995;BME280;49086;52.300;4.850;2022-07-10T12:25:50;53105.19;;;-146.41;47.75
62995;BME280;49086;52.300;4.850;2022-07-10T12:28:26;53125.13;;;-146.41;48.17
62995;BME280;49086;52.300;4.850;2022-07-10T12:31:01;53117.16;;;-146.41;49.70
62995;BME280;49086;52.300;4.850;2022-07-10T12:33:26;53081.28;;;-146.41;49.59
62995;BME280;49086;52.300;4.850;2022-07-10T12:36:03;53155.03;;;-146.41;51.15
62995;BME280;49086;52.300;4.850;2022-07-10T12:38:58;53141.06;;;-146.41;51.60
62995;BME280;49086;52.300;4.850;2022-07-10T12:41:25;53131.09;;;-146.41;50.91
62995;BME280;49086;52.300;4.850;2022-07-10T12:43:52;53115.16;;;-146.41;50.97
62995;BME280;49086;52.300;4.850;2022-07-10T12:46:23;53111.19;;;-146.41;52.24
62995;BME280;49086;52.300;4.850;2022-07-10T12:49:09;53109.19;;;-146.41;52.42
62995;BME280;49086;52.300;4.850;2022-07-10T12:52:05;53147.06;;;-146.41;51.40
62995;BME280;49086;52.300;4.850;2022-07-10T12:58:15;53087.25;;;-146.41;49.61
62995;BME280;49086;52.300;4.850;2022-07-10T13:00:48;53055.38;;;-146.41;49.67
62995;BME280;49086;52.300;4.850;2022-07-10T13:03:25;53085.25;;;-146.41;47.52
62995;BME280;49086;52.300;4.850;2022-07-10T13:06:30;53039.41;;;-146.41;47.30
62995;BME280;49086;52.300;4.850;2022-07-10T13:12:20;53091.25;;;-146.41;47.07
62995;BME280;49086;52.300;4.850;2022-07-10T13:14:51;53069.31;;;-146.41;47.87
62995;BME280;49086;52.300;4.850;2022-07-10T13:17:20;53091.25;;;-146.41;48.09
62995;BME280;49086;52.300;4.850;2022-07-10T13:20:09;53133.09;;;-146.41;48.55
62995;BME280;49086;52.300;4.850;2022-07-10T13:22:42;53089.25;;;-146.41;48.16
62995;BME280;49086;52.300;4.850;2022-07-10T13:25:09;53119.16;;;-146.41;48.92